createdAt,value
2018-04-17T00:00:53.323Z,12.28
2018-04-17T00:01:53.339Z,12.26
2018-04-17T00:02:53.362Z,12.20
2018-04-17T00:03:53.384Z,12.13
2018-04-17T00:04:53.403Z,12.04
2018-04-17T00:05:53.424Z,12.22
2018-04-17T00:06:53.444Z,12.11
2018-04-17T00:07:53.462Z,12.07
2018-04-17T00:08:53.485Z,12.16
2018-04-17T00:09:53.501Z,12.11
2018-04-17T00:10:53.525Z,12.07
2018-04-17T00:11:53.548Z,12.08
2018-04-17T00:12:53.562Z,12.00
2018-04-17T00:13:53.583Z,12.08
2018-04-17T00:14:53.608Z,11.86
2018-04-17T00:15:53.627Z,11.89
2018-04-17T00:16:53.643Z,11.89
2018-04-17T00:17:53.709Z,12.01
2018-04-17T00:18:53.679Z,11.98
2018-04-17T00:19:53.700Z,11.88
2018-04-17T00:20:53.722Z,11.86
2018-04-17T00:21:53.739Z,11.86
2018-04-17T00:22:53.762Z,11.95
2018-04-17T00:23:53.776Z,12.03
2018-04-17T00:24:53.806Z,11.86
2018-04-17T00:25:53.816Z,11.95
2018-04-17T00:26:53.843Z,11.89
2018-04-17T00:27:53.866Z,11.95
2018-04-17T00:28:53.876Z,11.88
2018-04-17T00:29:53.898Z,11.91
2018-04-17T00:30:53.915Z,11.89
2018-04-17T00:31:53.941Z,11.95
2018-04-17T00:32:53.963Z,11.81
2018-04-17T00:33:53.974Z,11.82
2018-04-17T00:34:54.003Z,11.88
2018-04-17T00:35:54.018Z,11.85
2018-04-17T00:36:54.043Z,11.81
2018-04-17T00:37:54.065Z,11.79
2018-04-17T00:38:54.076Z,11.73
2018-04-17T00:39:54.095Z,11.71
2018-04-17T00:40:54.119Z,11.76
2018-04-17T00:41:54.140Z,11.70
2018-04-17T00:42:54.153Z,11.75
2018-04-17T00:43:54.181Z,11.71
2018-04-17T00:44:54.202Z,11.68
2018-04-17T00:45:54.217Z,11.75
2018-04-17T00:46:54.240Z,11.76
2018-04-17T00:47:54.260Z,11.68
2018-04-17T00:48:54.276Z,11.78
2018-04-17T00:49:54.300Z,11.73
2018-04-17T00:50:54.317Z,11.71
2018-04-17T00:51:54.340Z,11.68
2018-04-17T00:52:54.357Z,11.68
2018-04-17T00:53:54.381Z,11.57
2018-04-17T00:54:54.392Z,11.60
2018-04-17T00:55:54.420Z,11.57
2018-04-17T00:56:54.435Z,11.56
2018-04-17T00:57:54.451Z,11.57
2018-04-17T00:58:54.479Z,11.59
2018-04-17T00:59:54.494Z,11.52
2018-04-17T01:00:54.510Z,11.60
2018-04-17T01:01:54.539Z,11.53
2018-04-17T01:02:54.559Z,11.52
2018-04-17T01:03:54.570Z,11.49
2018-04-17T01:04:54.599Z,11.48
2018-04-17T01:05:54.614Z,11.51
2018-04-17T01:06:54.637Z,11.59
2018-04-17T01:07:54.655Z,11.53
2018-04-17T01:08:54.671Z,11.52
2018-04-17T01:09:54.694Z,11.51
2018-04-17T01:10:54.711Z,11.49
2018-04-17T01:11:54.730Z,11.49
2018-04-17T01:12:54.754Z,11.48
2018-04-17T01:13:54.770Z,11.48
2018-04-17T01:14:54.798Z,11.52
2018-04-17T01:15:54.814Z,11.41
2018-04-17T01:16:54.831Z,11.45
2018-04-17T01:17:54.853Z,11.45
2018-04-17T01:18:54.865Z,11.42
2018-04-17T01:19:54.890Z,11.38
2018-04-17T01:20:54.908Z,11.38
2018-04-17T01:21:54.924Z,11.34
2018-04-17T01:22:54.952Z,11.45
2018-04-17T01:23:54.964Z,11.42
2018-04-17T01:24:54.991Z,11.39
2018-04-17T01:25:55.009Z,11.31
2018-04-17T01:26:55.024Z,11.34
2018-04-17T01:27:55.051Z,11.34
2018-04-17T01:28:55.062Z,11.31
2018-04-17T01:29:55.084Z,11.38
2018-04-17T01:30:55.106Z,11.39
2018-04-17T01:31:55.121Z,11.38
2018-04-17T01:32:55.150Z,11.34
2018-04-17T01:33:55.167Z,11.31
2018-04-17T01:34:55.187Z,11.27
2018-04-17T01:35:55.207Z,11.23
2018-04-17T01:36:55.218Z,11.15
2018-04-17T01:37:55.246Z,11.23
2018-04-17T01:38:55.257Z,11.23
2018-04-17T01:39:55.279Z,11.18
2018-04-17T01:40:55.301Z,11.24
2018-04-17T01:41:55.319Z,11.13
2018-04-17T01:42:55.343Z,11.18
2018-04-17T01:43:55.360Z,11.15
2018-04-17T01:45:29.363Z,11.20
2018-04-17T01:45:55.404Z,11.16
2018-04-17T01:46:55.428Z,11.16
2018-04-17T01:47:55.433Z,11.20
2018-04-17T01:48:55.464Z,11.20
2018-04-17T01:49:55.473Z,11.28
2018-04-17T01:50:55.499Z,11.16
2018-04-17T01:51:55.516Z,11.16
2018-04-17T01:52:55.539Z,11.18
2018-04-17T01:53:55.558Z,11.23
2018-04-17T01:54:55.573Z,11.24
2018-04-17T01:55:55.595Z,11.12
2018-04-17T01:56:55.613Z,11.21
2018-04-17T01:57:55.639Z,11.15
2018-04-17T01:58:55.660Z,11.12
2018-04-17T01:59:55.671Z,11.00
2018-04-17T02:00:55.701Z,11.03
2018-04-17T02:01:55.716Z,11.03
2018-04-17T02:02:55.736Z,10.91
2018-04-17T02:03:55.762Z,10.95
2018-04-17T02:04:55.776Z,10.85
2018-04-17T02:05:55.793Z,10.91
2018-04-17T02:06:55.817Z,11.02
2018-04-17T02:07:55.828Z,10.91
2018-04-17T02:08:55.878Z,10.95
2018-04-17T02:09:55.868Z,10.94
2018-04-17T02:10:55.899Z,10.88
2018-04-17T02:11:55.914Z,10.90
2018-04-17T02:12:55.929Z,10.87
2018-04-17T02:13:55.951Z,10.85
2018-04-17T02:14:55.964Z,10.90
2018-04-17T02:15:55.992Z,10.85
2018-04-17T02:16:56.011Z,10.83
2018-04-17T02:17:56.030Z,10.91
2018-04-17T02:18:56.046Z,10.88
2018-04-17T02:19:56.068Z,10.88
2018-04-17T02:20:56.096Z,10.88
2018-04-17T02:21:56.101Z,10.90
2018-04-17T02:22:56.120Z,10.85
2018-04-17T02:23:56.148Z,10.92
2018-04-17T02:24:56.166Z,10.91
2018-04-17T02:25:56.182Z,10.79
2018-04-17T02:26:56.203Z,10.90
2018-04-17T02:27:56.226Z,10.84
2018-04-17T02:28:56.239Z,10.83
2018-04-17T02:29:56.258Z,10.77
2018-04-17T02:30:56.280Z,10.85
2018-04-17T02:31:56.301Z,10.80
2018-04-17T02:32:56.328Z,10.76
2018-04-17T02:33:56.339Z,10.80
2018-04-17T02:34:56.365Z,10.72
2018-04-17T02:35:56.381Z,10.63
2018-04-17T02:36:56.394Z,10.75
2018-04-17T02:37:56.427Z,10.63
2018-04-17T02:38:56.441Z,10.70
2018-04-17T02:39:56.452Z,10.67
2018-04-17T02:40:56.475Z,10.66
2018-04-17T02:41:56.497Z,10.65
2018-04-17T02:42:56.515Z,10.57
2018-04-17T02:43:56.536Z,10.49
2018-04-17T02:44:56.556Z,10.52
2018-04-17T02:45:56.573Z,10.59
2018-04-17T02:46:56.588Z,10.52
2018-04-17T02:47:56.618Z,10.55
2018-04-17T02:48:56.631Z,10.67
2018-04-17T02:49:56.648Z,10.61
2018-04-17T02:50:56.671Z,10.73
2018-04-17T02:51:56.686Z,10.73
2018-04-17T02:52:56.710Z,10.70
2018-04-17T02:53:56.721Z,10.72
2018-04-17T02:54:56.747Z,10.73
2018-04-17T02:55:56.764Z,10.70
2018-04-17T02:56:56.786Z,10.75
2018-04-17T02:57:56.802Z,10.72
2018-04-17T02:58:56.816Z,10.70
2018-04-17T02:59:56.839Z,10.72
2018-04-17T03:00:56.861Z,10.65
2018-04-17T03:01:56.878Z,10.67
2018-04-17T03:02:56.903Z,10.65
2018-04-17T03:03:56.912Z,10.66
2018-04-17T03:04:56.935Z,10.61
2018-04-17T03:05:56.952Z,10.65
2018-04-17T03:06:56.975Z,10.63
2018-04-17T03:07:56.993Z,10.52
2018-04-17T03:08:57.015Z,10.52
2018-04-17T03:09:57.032Z,10.54
2018-04-17T03:10:57.058Z,10.49
2018-04-17T03:11:57.067Z,10.52
2018-04-17T03:12:57.093Z,10.54
2018-04-17T03:13:57.109Z,10.52
2018-04-17T03:14:57.128Z,10.39
2018-04-17T03:15:57.144Z,10.42
2018-04-17T03:16:57.173Z,10.52
2018-04-17T03:17:57.183Z,10.42
2018-04-17T03:18:57.208Z,10.52
2018-04-17T03:19:57.225Z,10.49
2018-04-17T03:20:57.240Z,10.35
2018-04-17T03:21:57.266Z,10.49
2018-04-17T03:22:57.288Z,10.42
2018-04-17T03:23:57.297Z,10.49
2018-04-17T03:24:57.320Z,10.42
2018-04-17T03:25:57.386Z,10.41
2018-04-17T03:26:57.355Z,10.38
2018-04-17T03:27:57.386Z,10.36
2018-04-17T03:28:57.402Z,10.38
2018-04-17T03:29:57.417Z,10.46
2018-04-17T03:30:57.432Z,10.35
2018-04-17T03:31:57.456Z,10.36
2018-04-17T03:32:57.484Z,10.35
2018-04-17T03:33:57.492Z,10.26
2018-04-17T03:34:57.511Z,10.32
2018-04-17T03:35:57.534Z,10.26
2018-04-17T03:36:57.550Z,10.32
2018-04-17T03:37:57.571Z,10.29
2018-04-17T03:38:57.599Z,10.31
2018-04-17T03:39:57.617Z,10.31
2018-04-17T03:40:57.623Z,10.32
2018-04-17T03:41:57.651Z,10.38
2018-04-17T03:42:57.670Z,10.35
2018-04-17T03:43:57.681Z,10.31
2018-04-17T03:44:57.711Z,10.31
2018-04-17T03:45:57.721Z,10.26
2018-04-17T03:46:57.741Z,10.32
2018-04-17T03:47:57.757Z,10.32
2018-04-17T03:48:57.785Z,10.26
2018-04-17T03:49:57.795Z,10.18
2018-04-17T03:50:57.815Z,10.18
2018-04-17T03:51:57.842Z,10.18
2018-04-17T03:52:57.852Z,10.17
2018-04-17T03:53:57.879Z,10.08
2018-04-17T03:54:57.893Z,10.15
2018-04-17T03:55:57.914Z,10.14
2018-04-17T03:56:57.933Z,10.20
2018-04-17T03:57:57.956Z,10.13
2018-04-17T03:58:57.965Z,10.15
2018-04-17T03:59:57.993Z,10.02
2018-04-17T04:00:58.006Z,10.13
2018-04-17T04:01:58.032Z,10.14
2018-04-17T04:02:58.048Z,10.11
2018-04-17T04:03:58.066Z,10.03
2018-04-17T04:04:58.080Z,10.08
2018-04-17T04:05:58.108Z,10.07
2018-04-17T04:06:58.126Z,9.96
2018-04-17T04:07:58.138Z,9.93
2018-04-17T04:08:58.166Z,9.85
2018-04-17T04:09:58.181Z,9.93
2018-04-17T04:10:58.200Z,9.93
2018-04-17T04:11:58.217Z,9.96
2018-04-17T04:12:58.239Z,9.90
2018-04-17T04:13:58.255Z,9.85
2018-04-17T04:14:58.279Z,9.95
2018-04-17T04:15:58.291Z,9.90
2018-04-17T04:16:58.318Z,9.96
2018-04-17T04:17:58.328Z,9.95
2018-04-17T04:18:58.350Z,9.88
2018-04-17T04:19:58.371Z,9.84
2018-04-17T04:20:58.387Z,9.93
2018-04-17T04:21:58.408Z,9.78
2018-04-17T04:22:58.423Z,9.93
2018-04-17T04:23:58.450Z,9.88
2018-04-17T04:24:58.461Z,9.84
2018-04-17T04:25:58.488Z,9.81
2018-04-17T04:26:58.510Z,9.85
2018-04-17T04:27:58.516Z,9.92
2018-04-17T04:28:58.539Z,9.93
2018-04-17T04:29:58.560Z,9.93
2018-04-17T04:30:58.574Z,9.90
2018-04-17T04:31:58.601Z,9.93
2018-04-17T04:32:58.617Z,9.78
2018-04-17T04:33:58.633Z,9.90
2018-04-17T04:34:58.656Z,9.90
2018-04-17T04:35:58.671Z,9.89
2018-04-17T04:36:58.693Z,9.85
2018-04-17T04:37:58.712Z,9.90
2018-04-17T04:38:58.727Z,9.85
2018-04-17T04:39:58.749Z,9.85
2018-04-17T04:40:58.772Z,9.84
2018-04-17T04:41:58.782Z,9.80
2018-04-17T04:42:58.801Z,9.80
2018-04-17T04:43:58.831Z,9.85
2018-04-17T04:44:58.839Z,9.82
2018-04-17T04:45:58.865Z,9.92
2018-04-17T04:46:58.883Z,9.92
2018-04-17T04:47:58.894Z,9.93
2018-04-17T04:48:58.922Z,9.98
2018-04-17T04:49:58.932Z,9.92
2018-04-17T04:50:58.959Z,10.03
2018-04-17T04:51:58.975Z,9.92
2018-04-17T04:52:58.998Z,10.00
2018-04-17T04:53:59.012Z,9.92
2018-04-17T04:54:59.032Z,9.99
2018-04-17T04:55:59.047Z,9.95
2018-04-17T04:56:59.071Z,10.10
2018-04-17T04:57:59.085Z,10.08
2018-04-17T04:58:59.104Z,9.95
2018-04-17T04:59:59.131Z,9.92
2018-04-17T05:00:59.140Z,9.96
2018-04-17T05:01:59.163Z,9.93
2018-04-17T05:02:59.177Z,9.92
2018-04-17T05:03:59.205Z,9.96
2018-04-17T05:04:59.214Z,9.95
2018-04-17T05:05:59.242Z,9.88
2018-04-17T05:06:59.252Z,9.88
2018-04-17T05:07:59.280Z,9.82
2018-04-17T05:08:59.291Z,9.81
2018-04-17T05:09:59.320Z,9.89
2018-04-17T05:10:59.330Z,9.92
2018-04-17T05:11:59.353Z,9.90
2018-04-17T05:12:59.368Z,9.90
2018-04-17T05:13:59.390Z,9.96
2018-04-17T05:14:59.408Z,9.89
2018-04-17T05:15:59.426Z,9.93
2018-04-17T05:16:59.449Z,9.92
2018-04-17T05:17:59.462Z,9.92
2018-04-17T05:18:59.487Z,9.90
2018-04-17T05:19:59.498Z,9.92
2018-04-17T05:20:59.527Z,10.02
2018-04-17T05:21:59.534Z,10.02
2018-04-17T05:22:59.563Z,10.02
2018-04-17T05:23:59.573Z,10.05
2018-04-17T05:24:59.600Z,10.17
2018-04-17T05:25:59.612Z,10.25
2018-04-17T05:26:59.635Z,10.20
2018-04-17T05:27:59.653Z,10.26
2018-04-17T05:28:59.674Z,10.35
2018-04-17T05:29:59.688Z,10.31
2018-04-17T05:30:59.709Z,10.42
2018-04-17T05:31:59.730Z,10.33
2018-04-17T05:32:59.753Z,10.38
2018-04-17T05:33:59.764Z,10.36
2018-04-17T05:34:59.782Z,10.46
2018-04-17T05:35:59.809Z,10.36
2018-04-17T05:36:59.828Z,10.39
2018-04-17T05:37:59.840Z,10.39
2018-04-17T05:38:59.858Z,10.31
2018-04-17T05:39:59.887Z,10.44
2018-04-17T05:40:59.895Z,10.49
2018-04-17T05:41:59.922Z,10.47
2018-04-17T05:42:59.935Z,10.49
2018-04-17T05:43:59.957Z,10.63
2018-04-17T05:44:59.981Z,10.63
2018-04-17T05:45:59.994Z,10.67
2018-04-17T05:47:00.015Z,10.76
2018-04-17T05:48:00.033Z,10.77
2018-04-17T05:49:00.054Z,10.94
2018-04-17T05:50:00.069Z,10.92
2018-04-17T05:51:00.095Z,10.88
2018-04-17T05:52:00.105Z,10.85
2018-04-17T05:53:00.133Z,10.90
2018-04-17T05:54:00.143Z,10.91
2018-04-17T05:55:00.165Z,10.95
2018-04-17T05:56:00.292Z,10.94
2018-04-17T05:57:00.207Z,11.06
2018-04-17T05:58:00.225Z,10.98
2018-04-17T05:59:00.241Z,11.10
2018-04-17T06:00:00.271Z,11.08
2018-04-17T06:01:00.278Z,11.15
2018-04-17T06:02:00.305Z,11.13
2018-04-17T06:03:00.321Z,11.21
2018-04-17T06:04:00.340Z,11.23
2018-04-17T06:05:00.357Z,11.26
2018-04-17T06:06:00.378Z,11.26
2018-04-17T06:07:00.393Z,11.34
2018-04-17T06:08:00.421Z,11.46
2018-04-17T06:09:00.431Z,11.39
2018-04-17T06:10:00.459Z,11.48
2018-04-17T06:11:00.471Z,11.39
2018-04-17T06:12:00.498Z,11.53
2018-04-17T06:13:00.511Z,11.49
2018-04-17T06:14:00.530Z,11.63
2018-04-17T06:15:00.556Z,11.79
2018-04-17T06:16:00.572Z,11.78
2018-04-17T06:17:00.590Z,11.84
2018-04-17T06:18:00.657Z,11.91
2018-04-17T06:19:00.626Z,12.04
2018-04-17T06:20:00.657Z,12.10
2018-04-17T06:21:00.676Z,12.07
2018-04-17T06:22:00.730Z,12.22
2018-04-17T06:23:00.746Z,12.31
2018-04-17T06:24:00.732Z,12.40
2018-04-17T06:25:00.754Z,12.62
2018-04-17T06:26:00.806Z,12.66
2018-04-17T06:27:00.785Z,12.91
2018-04-17T06:28:00.855Z,13.31
2018-04-17T06:29:00.824Z,13.94
2018-04-17T06:30:00.840Z,14.34
2018-04-17T06:31:00.873Z,14.67
2018-04-17T06:32:00.897Z,14.98
2018-04-17T06:33:00.901Z,15.15
2018-04-17T06:34:00.929Z,15.08
2018-04-17T06:35:00.952Z,15.10
2018-04-17T06:36:00.968Z,15.12
2018-04-17T06:37:00.986Z,15.12
2018-04-17T06:38:01.008Z,15.44
2018-04-17T06:39:01.027Z,15.45
2018-04-17T06:40:01.059Z,15.65
2018-04-17T06:41:01.067Z,15.96
2018-04-17T06:42:01.171Z,16.04
2018-04-17T06:43:01.111Z,16.07
2018-04-17T06:44:01.140Z,16.02
2018-04-17T06:45:01.151Z,16.17
2018-04-17T06:46:01.183Z,16.17
2018-04-17T06:47:01.198Z,16.21
2018-04-17T06:48:01.224Z,16.42
2018-04-17T06:49:01.243Z,16.32
2018-04-17T06:50:01.268Z,16.47
2018-04-17T06:51:01.285Z,16.57
2018-04-17T06:52:01.316Z,16.51
2018-04-17T06:53:01.331Z,16.42
2018-04-17T06:54:01.362Z,16.32
2018-04-17T06:55:01.378Z,16.29
2018-04-17T06:56:01.407Z,16.66
2018-04-17T06:57:01.424Z,16.80
2018-04-17T06:58:01.470Z,17.10
2018-04-17T06:59:01.549Z,17.36
2018-04-17T07:00:01.499Z,17.60
2018-04-17T07:01:01.520Z,17.74
2018-04-17T07:02:01.546Z,17.62
2018-04-17T07:03:01.563Z,17.36
2018-04-17T07:04:01.596Z,17.80
2018-04-17T07:05:01.613Z,17.90
2018-04-17T07:06:01.644Z,17.81
2018-04-17T07:07:01.668Z,17.62
2018-04-17T07:08:01.688Z,17.49
2018-04-17T07:09:01.712Z,17.47
2018-04-17T07:10:01.739Z,17.36
2018-04-17T07:11:01.764Z,17.42
2018-04-17T07:12:01.786Z,17.24
2018-04-17T07:13:01.807Z,17.36
2018-04-17T07:14:01.840Z,17.57
2018-04-17T07:15:01.862Z,17.98
2018-04-17T07:16:01.889Z,17.86
2018-04-17T07:17:01.960Z,17.87
2018-04-17T07:18:01.934Z,17.80
2018-04-17T07:19:01.970Z,17.95
2018-04-17T07:20:01.982Z,17.69
2018-04-17T07:21:02.009Z,17.65
2018-04-17T07:22:02.037Z,17.39
2018-04-17T07:23:02.064Z,17.42
2018-04-17T07:24:02.088Z,17.62
2018-04-17T07:25:02.109Z,17.95
2018-04-17T07:26:02.142Z,17.80
2018-04-17T07:27:02.168Z,18.27
2018-04-17T07:28:02.185Z,18.53
2018-04-17T07:29:02.213Z,18.59
2018-04-17T07:30:02.242Z,18.91
2018-04-17T07:31:02.264Z,19.15
2018-04-17T07:32:02.299Z,19.55
2018-04-17T07:33:02.317Z,19.85
2018-04-17T07:34:02.340Z,19.86
2018-04-17T07:35:02.371Z,19.71
2018-04-17T07:36:02.395Z,19.86
2018-04-17T07:37:02.418Z,19.52
2018-04-17T07:38:02.453Z,19.23
2018-04-17T07:39:02.473Z,19.30
2018-04-17T07:40:02.507Z,19.19
2018-04-17T07:41:02.531Z,19.47
2018-04-17T07:42:02.551Z,19.55
2018-04-17T07:43:02.578Z,19.63
2018-04-17T07:44:02.613Z,19.63
2018-04-17T07:45:02.638Z,19.40
2018-04-17T07:46:02.662Z,19.12
2018-04-17T07:47:02.691Z,18.91
2018-04-17T07:48:02.724Z,18.79
2018-04-17T07:49:02.762Z,18.96
2018-04-17T07:50:02.781Z,18.81
2018-04-17T07:51:02.804Z,18.51
2018-04-17T07:52:02.821Z,18.90
2018-04-17T07:53:02.852Z,19.40
2018-04-17T07:54:02.882Z,19.30
2018-04-17T07:55:02.903Z,19.13
2018-04-17T07:56:02.938Z,19.28
2018-04-17T07:57:02.963Z,19.34
2018-04-17T07:58:02.987Z,20.08
2018-04-17T07:59:03.014Z,20.46
2018-04-17T08:00:03.048Z,20.83
2018-04-17T08:01:03.094Z,20.44
2018-04-17T08:02:03.132Z,20.44
2018-04-17T08:03:03.159Z,20.64
2018-04-17T08:04:03.185Z,20.51
2018-04-17T08:05:03.260Z,20.44
2018-04-17T08:06:03.215Z,20.66
2018-04-17T08:07:03.270Z,20.44
2018-04-17T08:08:03.264Z,20.35
2018-04-17T08:09:03.290Z,20.16
2018-04-17T08:10:03.372Z,20.61
2018-04-17T08:11:03.349Z,20.78
2018-04-17T08:12:03.424Z,20.81
2018-04-17T08:13:03.424Z,21.18
2018-04-17T08:14:03.449Z,21.12
2018-04-17T08:15:03.516Z,20.98
2018-04-17T08:16:03.490Z,21.48
2018-04-17T08:17:03.577Z,21.90
2018-04-17T08:18:03.547Z,22.05
2018-04-17T08:19:03.577Z,22.16
2018-04-17T08:20:03.677Z,22.49
2018-04-17T08:21:03.657Z,22.55
2018-04-17T08:22:03.705Z,22.76
2018-04-17T08:23:03.737Z,22.67
2018-04-17T08:24:03.783Z,22.59
2018-04-17T08:25:03.931Z,22.49
2018-04-17T08:26:03.821Z,21.82
2018-04-17T08:27:03.854Z,21.83
2018-04-17T08:28:03.864Z,22.14
2018-04-17T08:29:03.906Z,21.96
2018-04-17T08:30:04.014Z,22.22
2018-04-17T08:31:04.005Z,21.97
2018-04-17T08:32:04.039Z,21.80
2018-04-17T08:33:04.068Z,21.97
2018-04-17T08:34:04.085Z,22.60
2018-04-17T08:35:04.110Z,22.92
2018-04-17T08:36:04.157Z,22.97
2018-04-17T08:37:04.208Z,22.64
2018-04-17T08:38:04.205Z,22.33
2018-04-17T08:39:04.229Z,22.81
2018-04-17T08:40:04.412Z,22.96
2018-04-17T08:41:04.293Z,23.32
2018-04-17T08:42:04.338Z,23.60
2018-04-17T08:43:04.348Z,23.71
2018-04-17T08:44:04.331Z,23.56
2018-04-17T08:45:04.527Z,23.56
2018-04-17T08:46:04.457Z,23.50
2018-04-17T08:47:04.476Z,23.01
2018-04-17T08:48:04.517Z,22.70
2018-04-17T08:49:04.528Z,22.79
2018-04-17T08:50:04.598Z,22.46
2018-04-17T08:51:04.571Z,22.69
2018-04-17T08:52:04.588Z,22.60
2018-04-17T08:53:04.617Z,23.18
2018-04-17T08:54:04.655Z,23.04
2018-04-17T08:55:04.792Z,23.12
2018-04-17T08:56:04.721Z,23.29
2018-04-17T08:57:04.706Z,22.89
2018-04-17T08:58:04.740Z,23.34
2018-04-17T08:59:04.795Z,22.79
2018-04-17T09:00:04.877Z,22.61
2018-04-17T09:01:04.821Z,22.79
2018-04-17T09:02:04.859Z,22.78
2018-04-17T09:03:04.891Z,22.81
2018-04-17T09:04:04.911Z,23.16
2018-04-17T09:05:04.945Z,22.94
2018-04-17T09:06:04.979Z,22.96
2018-04-17T09:07:05.007Z,22.78
2018-04-17T09:08:05.040Z,22.75
2018-04-17T09:09:05.066Z,22.76
2018-04-17T09:10:05.095Z,23.26
2018-04-17T09:11:05.134Z,23.59
2018-04-17T09:12:05.164Z,23.93
2018-04-17T09:13:05.192Z,23.94
2018-04-17T09:14:05.217Z,24.45
2018-04-17T09:15:05.248Z,24.19
2018-04-17T09:16:05.285Z,24.08
2018-04-17T09:17:05.369Z,24.37
2018-04-17T09:18:05.336Z,24.58
2018-04-17T09:19:05.373Z,24.58
2018-04-17T09:20:05.846Z,24.39
2018-04-17T09:21:05.428Z,23.97
2018-04-17T09:22:05.467Z,23.89
2018-04-17T09:23:05.495Z,24.17
2018-04-17T09:24:05.524Z,24.03
2018-04-17T09:25:05.561Z,24.22
2018-04-17T09:26:05.591Z,24.83
2018-04-17T09:27:05.622Z,24.45
2018-04-17T09:28:05.650Z,24.19
2018-04-17T09:29:05.689Z,24.44
2018-04-17T09:30:05.709Z,24.80
2018-04-17T09:31:05.737Z,24.07
2018-04-17T09:32:05.775Z,24.18
2018-04-17T09:33:05.846Z,23.78
2018-04-17T09:34:05.853Z,24.52
2018-04-17T09:35:05.941Z,25.12
2018-04-17T09:36:05.964Z,25.54
2018-04-17T09:37:05.925Z,25.63
2018-04-17T09:38:05.957Z,25.24
2018-04-17T09:39:05.996Z,24.86
2018-04-17T09:40:06.015Z,24.80
2018-04-17T09:41:06.055Z,24.92
2018-04-17T09:42:06.081Z,24.58
2018-04-17T09:43:06.114Z,24.59
2018-04-17T09:44:06.147Z,24.70
2018-04-17T09:45:06.176Z,24.87
2018-04-17T09:46:06.203Z,25.02
2018-04-17T09:47:06.240Z,25.11
2018-04-17T09:48:06.272Z,25.07
2018-04-17T09:49:06.294Z,25.14
2018-04-17T09:50:06.333Z,25.30
2018-04-17T09:51:06.368Z,25.45
2018-04-17T09:52:06.388Z,25.96
2018-04-17T09:53:06.430Z,25.89
2018-04-17T09:54:06.455Z,25.32
2018-04-17T09:55:06.489Z,24.90
2018-04-17T09:56:06.519Z,24.97
2018-04-17T09:57:06.548Z,25.01
2018-04-17T09:58:06.575Z,25.11
2018-04-17T09:59:06.620Z,25.04
2018-04-17T10:00:06.645Z,25.38
2018-04-17T10:01:06.669Z,25.41
2018-04-17T10:02:06.709Z,25.26
2018-04-17T10:03:06.742Z,25.15
2018-04-17T10:04:06.764Z,25.11
2018-04-17T10:05:06.799Z,24.21
2018-04-17T10:06:06.833Z,23.89
2018-04-17T10:07:06.864Z,23.59
2018-04-17T10:08:06.891Z,23.60
2018-04-17T10:09:06.995Z,24.08
2018-04-17T10:10:06.960Z,24.55
2018-04-17T10:11:06.982Z,24.78
2018-04-17T10:12:07.023Z,24.67
2018-04-17T10:13:07.044Z,24.92
2018-04-17T10:14:07.078Z,24.61
2018-04-17T10:15:07.114Z,25.05
2018-04-17T10:16:07.135Z,25.42
2018-04-17T10:17:07.169Z,25.29
2018-04-17T10:18:07.204Z,25.34
2018-04-17T10:19:07.227Z,25.94
2018-04-17T10:20:07.269Z,25.93
2018-04-17T10:21:07.292Z,25.82
2018-04-17T10:22:07.329Z,25.44
2018-04-17T10:23:07.401Z,25.75
2018-04-17T10:24:07.392Z,25.67
2018-04-17T10:25:07.467Z,25.49
2018-04-17T10:26:07.453Z,25.79
2018-04-17T10:27:07.477Z,25.89
2018-04-17T10:28:07.514Z,25.34
2018-04-17T10:29:07.541Z,25.19
2018-04-17T10:30:07.576Z,24.24
2018-04-17T10:31:07.603Z,24.45
2018-04-17T10:32:07.639Z,24.49
2018-04-17T10:33:07.670Z,24.86
2018-04-17T10:34:07.702Z,24.67
2018-04-17T10:35:07.727Z,24.46
2018-04-17T10:36:07.760Z,24.51
2018-04-17T10:37:07.787Z,24.85
2018-04-17T10:38:07.820Z,25.17
2018-04-17T10:39:07.847Z,24.77
2018-04-17T10:40:07.887Z,24.96
2018-04-17T10:41:07.910Z,25.39
2018-04-17T10:42:07.947Z,25.84
2018-04-17T10:43:07.970Z,25.67
2018-04-17T10:44:08.009Z,25.47
2018-04-17T10:45:08.031Z,25.15
2018-04-17T10:46:08.070Z,25.56
2018-04-17T10:47:08.097Z,25.23
2018-04-17T10:48:08.129Z,24.89
2018-04-17T10:49:08.158Z,24.29
2018-04-17T10:50:08.193Z,23.92
2018-04-17T10:51:08.216Z,23.59
2018-04-17T10:52:08.257Z,22.96
2018-04-17T10:53:08.278Z,23.16
2018-04-17T10:54:08.315Z,24.08
2018-04-17T10:55:08.386Z,24.67
2018-04-17T10:56:08.377Z,25.20
2018-04-17T10:57:08.402Z,25.69
2018-04-17T10:58:08.436Z,25.86
2018-04-17T10:59:08.469Z,25.94
2018-04-17T11:00:08.498Z,25.82
2018-04-17T11:01:08.531Z,25.47
2018-04-17T11:02:08.553Z,25.54
2018-04-17T11:03:08.610Z,25.52
2018-04-17T11:04:08.621Z,25.27
2018-04-17T11:05:08.644Z,26.00
2018-04-17T11:06:08.681Z,26.47
2018-04-17T11:07:08.707Z,27.04
2018-04-17T11:08:08.740Z,27.27
2018-04-17T11:09:08.773Z,27.38
2018-04-17T11:10:08.964Z,26.68
2018-04-17T11:11:08.827Z,26.78
2018-04-17T11:12:08.865Z,26.50
2018-04-17T11:13:08.893Z,26.00
2018-04-17T11:14:08.920Z,25.66
2018-04-17T11:15:08.956Z,25.76
2018-04-17T11:16:08.990Z,25.96
2018-04-17T11:17:09.012Z,26.44
2018-04-17T11:18:09.044Z,26.60
2018-04-17T11:19:09.081Z,26.67
2018-04-17T11:20:09.105Z,26.97
2018-04-17T11:21:09.139Z,27.12
2018-04-17T11:22:09.171Z,26.37
2018-04-17T11:23:09.251Z,26.31
2018-04-17T11:24:09.236Z,26.22
2018-04-17T11:25:09.266Z,26.50
2018-04-17T11:26:09.293Z,26.79
2018-04-17T11:27:09.327Z,26.22
2018-04-17T11:28:09.358Z,26.22
2018-04-17T11:29:09.491Z,26.44
2018-04-17T11:30:09.422Z,26.41
2018-04-17T11:31:09.450Z,26.89
2018-04-17T11:32:09.483Z,27.08
2018-04-17T11:33:09.512Z,27.34
2018-04-17T11:34:09.551Z,27.24
2018-04-17T11:35:09.572Z,27.45
2018-04-17T11:36:09.612Z,27.75
2018-04-17T11:37:09.634Z,27.57
2018-04-17T11:38:09.675Z,27.89
2018-04-17T11:39:09.706Z,27.79
2018-04-17T11:40:09.731Z,27.64
2018-04-17T11:41:09.770Z,27.45
2018-04-17T11:42:09.792Z,27.23
2018-04-17T11:43:09.831Z,26.71
2018-04-17T11:44:09.860Z,26.41
2018-04-17T11:45:09.894Z,26.32
2018-04-17T11:46:09.931Z,26.68
2018-04-17T11:47:09.951Z,26.60
2018-04-17T11:48:09.998Z,26.71
2018-04-17T11:49:10.020Z,26.17
2018-04-17T11:50:10.055Z,26.22
2018-04-17T11:51:10.082Z,26.69
2018-04-17T11:52:10.118Z,27.28
2018-04-17T11:53:10.183Z,27.06
2018-04-17T11:54:10.204Z,26.69
2018-04-17T11:55:10.293Z,26.16
2018-04-17T11:56:10.328Z,26.38
2018-04-17T11:57:10.359Z,27.08
2018-04-17T11:58:10.377Z,27.45
2018-04-17T11:59:10.431Z,27.55
2018-04-17T12:00:10.549Z,28.08
2018-04-17T12:01:10.481Z,27.83
2018-04-17T12:02:10.508Z,27.81
2018-04-17T12:03:10.550Z,27.76
2018-04-17T12:04:10.566Z,27.83
2018-04-17T12:05:10.698Z,27.66
2018-04-17T12:06:10.640Z,27.59
2018-04-17T12:07:10.663Z,27.71
2018-04-17T12:08:10.657Z,27.37
2018-04-17T12:09:10.680Z,27.91
2018-04-17T12:10:10.755Z,28.16
2018-04-17T12:11:10.743Z,27.81
2018-04-17T12:12:10.772Z,27.71
2018-04-17T12:13:10.813Z,27.96
2018-04-17T12:14:10.841Z,28.75
2018-04-17T12:15:10.923Z,28.78
2018-04-17T12:16:10.892Z,28.06
2018-04-17T12:17:10.932Z,27.71
2018-04-17T12:18:10.969Z,27.81
2018-04-17T12:19:11.000Z,27.61
2018-04-17T12:20:11.080Z,27.93
2018-04-17T12:21:11.060Z,28.20
2018-04-17T12:22:11.073Z,28.30
2018-04-17T12:23:11.133Z,28.64
2018-04-17T12:24:11.148Z,28.46
2018-04-17T12:25:11.159Z,28.23
2018-04-17T12:26:11.185Z,28.24
2018-04-17T12:27:11.219Z,28.36
2018-04-17T12:28:11.248Z,28.03
2018-04-17T12:29:11.281Z,28.28
2018-04-17T12:30:11.314Z,28.14
2018-04-17T12:31:11.346Z,28.20
2018-04-17T12:32:11.372Z,28.38
2018-04-17T12:33:11.413Z,28.43
2018-04-17T12:34:11.436Z,28.64
2018-04-17T12:35:11.471Z,28.65
2018-04-17T12:36:11.505Z,28.63
2018-04-17T12:37:11.539Z,28.64
2018-04-17T12:38:11.612Z,28.54
2018-04-17T12:39:11.598Z,28.76
2018-04-17T12:40:11.632Z,28.97
2018-04-17T12:41:11.660Z,28.17
2018-04-17T12:42:11.697Z,28.49
2018-04-17T12:43:11.732Z,28.38
2018-04-17T12:44:11.754Z,28.54
2018-04-17T12:45:11.787Z,28.17
2018-04-17T12:46:11.820Z,28.41
2018-04-17T12:47:11.853Z,27.96
2018-04-17T12:48:11.881Z,27.74
2018-04-17T12:49:11.911Z,27.12
2018-04-17T12:50:11.952Z,27.01
2018-04-17T12:51:11.973Z,26.82
2018-04-17T12:52:12.016Z,26.54
2018-04-17T12:53:12.038Z,26.75
2018-04-17T12:54:12.070Z,26.34
2018-04-17T12:55:12.109Z,27.18